sensor_id;sensor_type;location;lat;lon;timestamp;P1;durP1;ratioP1;P2;durP2;ratioP2
66886;SDS011;67239;51.680;5.976;2023-02-17T00:01:30;21.33;;;15.73;;
66886;SDS011;67239;51.680;5.976;2023-02-17T00:03:59;22.38;;;15.48;;
66886;SDS011;67239;51.680;5.976;2023-02-17T00:06:27;20.60;;;15.20;;
66886;SDS011;67239;51.680;5.976;2023-02-17T00:08:58;20.77;;;15.75;;
66886;SDS011;67239;51.680;5.976;2023-02-17T00:11:26;23.00;;;15.73;;
66886;SDS011;67239;51.680;5.976;2023-02-17T00:13:54;18.77;;;14.75;;
66886;SDS011;67239;51.680;5.976;2023-02-17T00:16:22;22.83;;;15.75;;
66886;SDS011;67239;51.680;5.976;2023-02-17T00:18:53;19.55;;;15.20;;
66886;SDS011;67239;51.680;5.976;2023-02-17T00:21:28;21.13;;;14.93;;
66886;SDS011;67239;51.680;5.976;2023-02-17T00:23:57;18.58;;;14.10;;
66886;SDS011;67239;51.680;5.976;2023-02-17T00:26:25;18.27;;;14.18;;
66886;SDS011;67239;51.680;5.976;2023-02-17T00:28:52;18.25;;;14.32;;
66886;SDS011;67239;51.680;5.976;2023-02-17T00:31:20;17.42;;;14.02;;
66886;SDS011;67239;51.680;5.976;2023-02-17T00:33:52;15.80;;;12.60;;
66886;SDS011;67239;51.680;5.976;2023-02-17T00:36:21;15.35;;;12.20;;
66886;SDS011;67239;51.680;5.976;2023-02-17T00:38:49;16.33;;;12.27;;
66886;SDS011;67239;51.680;5.976;2023-02-17T00:41:17;16.85;;;12.75;;
66886;SDS011;67239;51.680;5.976;2023-02-17T00:43:45;15.60;;;12.68;;
66886;SDS011;67239;51.680;5.976;2023-02-17T00:46:14;18.17;;;13.18;;
66886;SDS011;67239;51.680;5.976;2023-02-17T00:48:44;15.02;;;12.68;;
66886;SDS011;67239;51.680;5.976;2023-02-17T00:51:13;15.13;;;12.50;;
66886;SDS011;67239;51.680;5.976;2023-02-17T00:53:41;14.32;;;12.02;;
66886;SDS011;67239;51.680;5.976;2023-02-17T00:56:10;15.60;;;12.18;;
66886;SDS011;67239;51.680;5.976;2023-02-17T00:58:37;13.75;;;11.70;;
66886;SDS011;67239;51.680;5.976;2023-02-17T01:01:07;17.40;;;12.57;;
66886;SDS011;67239;51.680;5.976;2023-02-17T01:03:39;15.52;;;12.75;;
66886;SDS011;67239;51.680;5.976;2023-02-17T01:06:09;15.68;;;13.00;;
66886;SDS011;67239;51.680;5.976;2023-02-17T01:08:42;17.00;;;13.82;;
66886;SDS011;67239;51.680;5.976;2023-02-17T01:11:15;19.25;;;13.65;;
66886;SDS011;67239;51.680;5.976;2023-02-17T01:13:45;16.95;;;13.95;;
66886;SDS011;67239;51.680;5.976;2023-02-17T01:16:46;18.80;;;14.90;;
66886;SDS011;67239;51.680;5.976;2023-02-17T01:19:12;20.30;;;14.95;;
66886;SDS011;67239;51.680;5.976;2023-02-17T01:21:46;19.48;;;15.45;;
66886;SDS011;67239;51.680;5.976;2023-02-17T01:24:14;22.52;;;16.15;;
66886;SDS011;67239;51.680;5.976;2023-02-17T01:26:41;21.65;;;16.20;;
66886;SDS011;67239;51.680;5.976;2023-02-17T01:29:08;22.20;;;16.33;;
66886;SDS011;67239;51.680;5.976;2023-02-17T01:31:36;21.55;;;15.68;;
66886;SDS011;67239;51.680;5.976;2023-02-17T01:34:05;20.52;;;15.90;;
66886;SDS011;67239;51.680;5.976;2023-02-17T01:36:32;19.80;;;15.18;;
66886;SDS011;67239;51.680;5.976;2023-02-17T01:38:59;18.88;;;14.57;;
66886;SDS011;67239;51.680;5.976;2023-02-17T01:41:27;16.83;;;13.90;;
66886;SDS011;67239;51.680;5.976;2023-02-17T01:44:04;16.48;;;13.73;;
66886;SDS011;67239;51.680;5.976;2023-02-17T01:46:39;16.02;;;12.98;;
66886;SDS011;67239;51.680;5.976;2023-02-17T01:49:12;14.73;;;12.00;;
66886;SDS011;67239;51.680;5.976;2023-02-17T01:51:51;13.95;;;11.05;;
66886;SDS011;67239;51.680;5.976;2023-02-17T01:54:31;14.52;;;11.13;;
66886;SDS011;67239;51.680;5.976;2023-02-17T01:57:07;15.07;;;10.73;;
66886;SDS011;67239;51.680;5.976;2023-02-17T01:59:37;11.15;;;9.32;;
66886;SDS011;67239;51.680;5.976;2023-02-17T02:02:06;12.48;;;9.13;;
66886;SDS011;67239;51.680;5.976;2023-02-17T02:04:35;9.85;;;8.25;;
66886;SDS011;67239;51.680;5.976;2023-02-17T02:07:09;10.55;;;8.30;;
66886;SDS011;67239;51.680;5.976;2023-02-17T02:09:48;9.95;;;8.35;;
66886;SDS011;67239;51.680;5.976;2023-02-17T02:12:23;9.80;;;8.07;;
66886;SDS011;67239;51.680;5.976;2023-02-17T02:14:55;10.30;;;7.93;;
66886;SDS011;67239;51.680;5.976;2023-02-17T02:17:41;10.77;;;7.82;;
66886;SDS011;67239;51.680;5.976;2023-02-17T02:20:32;9.18;;;7.85;;
66886;SDS011;67239;51.680;5.976;2023-02-17T02:23:40;9.38;;;8.02;;
66886;SDS011;67239;51.680;5.976;2023-02-17T02:33:06;8.95;;;7.30;;
66886;SDS011;67239;51.680;5.976;2023-02-17T02:38:55;9.30;;;7.40;;
66886;SDS011;67239;51.680;5.976;2023-02-17T02:41:41;11.70;;;7.80;;
66886;SDS011;67239;51.680;5.976;2023-02-17T02:44:16;9.45;;;7.43;;
66886;SDS011;67239;51.680;5.976;2023-02-17T02:46:55;8.65;;;7.57;;
66886;SDS011;67239;51.680;5.976;2023-02-17T02:49:27;10.95;;;8.27;;
66886;SDS011;67239;51.680;5.976;2023-02-17T02:57:37;11.35;;;8.88;;
66886;SDS011;67239;51.680;5.976;2023-02-17T03:03:23;14.55;;;10.50;;
66886;SDS011;67239;51.680;5.976;2023-02-17T03:06:21;14.52;;;11.05;;
66886;SDS011;67239;51.680;5.976;2023-02-17T03:08:59;13.53;;;10.80;;
66886;SDS011;67239;51.680;5.976;2023-02-17T03:11:34;14.82;;;10.80;;
66886;SDS011;67239;51.680;5.976;2023-02-17T03:14:06;14.35;;;10.55;;
66886;SDS011;67239;51.680;5.976;2023-02-17T03:16:40;13.23;;;10.20;;
66886;SDS011;67239;51.680;5.976;2023-02-17T03:19:09;14.75;;;10.18;;
66886;SDS011;67239;51.680;5.976;2023-02-17T03:24:21;14.25;;;10.45;;
66886;SDS011;67239;51.680;5.976;2023-02-17T03:26:49;14.50;;;10.77;;
66886;SDS011;67239;51.680;5.976;2023-02-17T03:29:16;13.85;;;10.38;;
66886;SDS011;67239;51.680;5.976;2023-02-17T03:31:44;14.45;;;10.32;;
66886;SDS011;67239;51.680;5.976;2023-02-17T03:34:11;14.93;;;10.40;;
66886;SDS011;67239;51.680;5.976;2023-02-17T03:36:38;14.48;;;10.73;;
66886;SDS011;67239;51.680;5.976;2023-02-17T03:39:05;12.75;;;10.00;;
66886;SDS011;67239;51.680;5.976;2023-02-17T03:41:32;14.30;;;10.27;;
66886;SDS011;67239;51.680;5.976;2023-02-17T03:43:59;13.32;;;9.75;;
66886;SDS011;67239;51.680;5.976;2023-02-17T03:46:27;13.93;;;9.80;;
66886;SDS011;67239;51.680;5.976;2023-02-17T03:48:54;14.30;;;10.48;;
66886;SDS011;67239;51.680;5.976;2023-02-17T03:51:22;14.55;;;9.95;;
66886;SDS011;67239;51.680;5.976;2023-02-17T03:53:51;15.23;;;10.35;;
66886;SDS011;67239;51.680;5.976;2023-02-17T03:56:18;14.13;;;10.73;;
66886;SDS011;67239;51.680;5.976;2023-02-17T03:58:46;15.05;;;10.32;;
66886;SDS011;67239;51.680;5.976;2023-02-17T04:01:13;15.30;;;10.55;;
66886;SDS011;67239;51.680;5.976;2023-02-17T04:03:40;13.05;;;9.57;;
66886;SDS011;67239;51.680;5.976;2023-02-17T04:06:08;12.93;;;9.13;;
66886;SDS011;67239;51.680;5.976;2023-02-17T04:08:36;12.57;;;8.63;;
66886;SDS011;67239;51.680;5.976;2023-02-17T04:11:04;10.95;;;8.38;;
66886;SDS011;67239;51.680;5.976;2023-02-17T04:13:34;10.77;;;7.50;;
66886;SDS011;67239;51.680;5.976;2023-02-17T04:16:02;9.70;;;7.32;;
66886;SDS011;67239;51.680;5.976;2023-02-17T04:18:31;8.95;;;7.13;;
66886;SDS011;67239;51.680;5.976;2023-02-17T04:20:59;9.85;;;7.25;;
66886;SDS011;67239;51.680;5.976;2023-02-17T04:23:26;8.80;;;6.65;;
66886;SDS011;67239;51.680;5.976;2023-02-17T04:25:53;10.05;;;7.38;;
66886;SDS011;67239;51.680;5.976;2023-02-17T04:28:20;8.73;;;6.70;;
66886;SDS011;67239;51.680;5.976;2023-02-17T04:30:49;9.60;;;6.50;;
66886;SDS011;67239;51.680;5.976;2023-02-17T04:33:17;8.10;;;6.13;;
66886;SDS011;67239;51.680;5.976;2023-02-17T04:35:47;8.43;;;6.10;;
66886;SDS011;67239;51.680;5.976;2023-02-17T04:38:14;9.18;;;6.50;;
66886;SDS011;67239;51.680;5.976;2023-02-17T04:40:42;9.23;;;6.03;;
66886;SDS011;67239;51.680;5.976;2023-02-17T04:43:09;8.63;;;6.20;;
66886;SDS011;67239;51.680;5.976;2023-02-17T04:45:36;10.38;;;6.65;;
66886;SDS011;67239;51.680;5.976;2023-02-17T04:48:04;8.32;;;5.85;;
66886;SDS011;67239;51.680;5.976;2023-02-17T04:50:31;9.15;;;6.00;;
66886;SDS011;67239;51.680;5.976;2023-02-17T04:52:58;8.90;;;6.22;;
66886;SDS011;67239;51.680;5.976;2023-02-17T04:55:25;8.38;;;5.72;;
66886;SDS011;67239;51.680;5.976;2023-02-17T04:57:52;8.57;;;5.93;;
66886;SDS011;67239;51.680;5.976;2023-02-17T05:00:19;7.72;;;5.82;;
66886;SDS011;67239;51.680;5.976;2023-02-17T05:02:46;9.10;;;6.35;;
66886;SDS011;67239;51.680;5.976;2023-02-17T05:05:13;8.30;;;6.07;;
66886;SDS011;67239;51.680;5.976;2023-02-17T05:07:41;9.55;;;6.30;;
66886;SDS011;67239;51.680;5.976;2023-02-17T05:10:12;10.65;;;6.78;;
66886;SDS011;67239;51.680;5.976;2023-02-17T05:12:42;8.20;;;5.88;;
66886;SDS011;67239;51.680;5.976;2023-02-17T05:15:10;9.50;;;6.05;;
66886;SDS011;67239;51.680;5.976;2023-02-17T05:17:38;8.50;;;6.25;;
66886;SDS011;67239;51.680;5.976;2023-02-17T05:20:06;8.82;;;6.15;;
66886;SDS011;67239;51.680;5.976;2023-02-17T05:22:34;8.45;;;6.03;;
66886;SDS011;67239;51.680;5.976;2023-02-17T05:25:02;8.27;;;6.00;;
66886;SDS011;67239;51.680;5.976;2023-02-17T05:27:30;10.43;;;5.90;;
66886;SDS011;67239;51.680;5.976;2023-02-17T05:29:57;8.23;;;6.00;;
66886;SDS011;67239;51.680;5.976;2023-02-17T05:32:24;7.95;;;5.15;;
66886;SDS011;67239;51.680;5.976;2023-02-17T05:34:52;6.95;;;5.15;;
66886;SDS011;67239;51.680;5.976;2023-02-17T05:37:19;8.57;;;5.63;;
66886;SDS011;67239;51.680;5.976;2023-02-17T05:39:46;6.97;;;5.22;;
66886;SDS011;67239;51.680;5.976;2023-02-17T05:42:13;7.18;;;5.18;;
66886;SDS011;67239;51.680;5.976;2023-02-17T05:44:40;8.18;;;5.25;;
66886;SDS011;67239;51.680;5.976;2023-02-17T05:47:07;8.82;;;4.65;;
66886;SDS011;67239;51.680;5.976;2023-02-17T05:49:34;7.45;;;5.32;;
66886;SDS011;67239;51.680;5.976;2023-02-17T05:52:01;7.93;;;5.05;;
66886;SDS011;67239;51.680;5.976;2023-02-17T05:54:28;5.85;;;4.22;;
66886;SDS011;67239;51.680;5.976;2023-02-17T05:56:55;8.13;;;4.65;;
66886;SDS011;67239;51.680;5.976;2023-02-17T05:59:22;8.40;;;4.75;;
66886;SDS011;67239;51.680;5.976;2023-02-17T06:01:50;9.20;;;4.90;;
66886;SDS011;67239;51.680;5.976;2023-02-17T06:04:17;7.07;;;4.57;;
66886;SDS011;67239;51.680;5.976;2023-02-17T06:06:46;8.48;;;4.60;;
66886;SDS011;67239;51.680;5.976;2023-02-17T06:09:13;6.97;;;4.80;;
66886;SDS011;67239;51.680;5.976;2023-02-17T06:11:40;6.82;;;4.30;;
66886;SDS011;67239;51.680;5.976;2023-02-17T06:14:07;7.32;;;4.43;;
66886;SDS011;67239;51.680;5.976;2023-02-17T06:16:34;6.72;;;4.63;;
66886;SDS011;67239;51.680;5.976;2023-02-17T06:19:01;6.32;;;4.40;;
66886;SDS011;67239;51.680;5.976;2023-02-17T06:21:30;6.53;;;4.75;;
66886;SDS011;67239;51.680;5.976;2023-02-17T06:23:57;10.23;;;5.18;;
66886;SDS011;67239;51.680;5.976;2023-02-17T06:26:24;7.85;;;5.13;;
66886;SDS011;67239;51.680;5.976;2023-02-17T06:28:57;11.55;;;5.38;;
66886;SDS011;67239;51.680;5.976;2023-02-17T06:31:24;10.20;;;5.65;;
66886;SDS011;67239;51.680;5.976;2023-02-17T06:33:51;9.00;;;5.45;;
66886;SDS011;67239;51.680;5.976;2023-02-17T06:36:18;8.32;;;5.53;;
66886;SDS011;67239;51.680;5.976;2023-02-17T06:38:45;9.85;;;6.00;;
66886;SDS011;67239;51.680;5.976;2023-02-17T06:41:12;9.30;;;5.97;;
66886;SDS011;67239;51.680;5.976;2023-02-17T06:43:40;9.48;;;6.28;;
66886;SDS011;67239;51.680;5.976;2023-02-17T06:46:08;9.43;;;6.47;;
66886;SDS011;67239;51.680;5.976;2023-02-17T06:48:35;12.10;;;6.57;;
66886;SDS011;67239;51.680;5.976;2023-02-17T06:51:02;10.30;;;6.38;;
66886;SDS011;67239;51.680;5.976;2023-02-17T06:53:32;10.38;;;6.60;;
66886;SDS011;67239;51.680;5.976;2023-02-17T06:55:59;8.68;;;6.38;;
66886;SDS011;67239;51.680;5.976;2023-02-17T06:58:26;11.30;;;6.47;;
66886;SDS011;67239;51.680;5.976;2023-02-17T07:00:58;11.63;;;6.97;;
66886;SDS011;67239;51.680;5.976;2023-02-17T07:03:27;13.45;;;7.38;;
66886;SDS011;67239;51.680;5.976;2023-02-17T07:06:00;11.80;;;7.70;;
66886;SDS011;67239;51.680;5.976;2023-02-17T07:08:27;11.05;;;6.88;;
66886;SDS011;67239;51.680;5.976;2023-02-17T07:10:54;12.70;;;7.68;;
66886;SDS011;67239;51.680;5.976;2023-02-17T07:13:21;12.90;;;7.72;;
66886;SDS011;67239;51.680;5.976;2023-02-17T07:15:48;12.75;;;7.30;;
66886;SDS011;67239;51.680;5.976;2023-02-17T07:18:16;11.60;;;7.55;;
66886;SDS011;67239;51.680;5.976;2023-02-17T07:20:47;11.55;;;7.78;;
66886;SDS011;67239;51.680;5.976;2023-02-17T07:23:14;13.88;;;7.40;;
66886;SDS011;67239;51.680;5.976;2023-02-17T07:25:41;12.48;;;8.00;;
66886;SDS011;67239;51.680;5.976;2023-02-17T07:28:08;13.32;;;8.60;;
66886;SDS011;67239;51.680;5.976;2023-02-17T07:30:36;12.68;;;7.93;;
66886;SDS011;67239;51.680;5.976;2023-02-17T07:33:08;12.02;;;7.70;;
66886;SDS011;67239;51.680;5.976;2023-02-17T07:35:40;11.43;;;7.78;;
66886;SDS011;67239;51.680;5.976;2023-02-17T07:38:09;13.32;;;8.45;;
66886;SDS011;67239;51.680;5.976;2023-02-17T07:40:40;12.90;;;8.65;;
66886;SDS011;67239;51.680;5.976;2023-02-17T07:43:07;15.15;;;9.02;;
66886;SDS011;67239;51.680;5.976;2023-02-17T07:45:34;13.32;;;8.77;;
66886;SDS011;67239;51.680;5.976;2023-02-17T07:48:01;14.93;;;8.85;;
66886;SDS011;67239;51.680;5.976;2023-02-17T07:50:28;15.88;;;8.20;;
66886;SDS011;67239;51.680;5.976;2023-02-17T07:52:55;12.90;;;8.80;;
66886;SDS011;67239;51.680;5.976;2023-02-17T07:55:22;16.65;;;8.60;;
66886;SDS011;67239;51.680;5.976;2023-02-17T07:57:49;14.00;;;8.75;;
66886;SDS011;67239;51.680;5.976;2023-02-17T08:00:17;14.25;;;8.95;;
66886;SDS011;67239;51.680;5.976;2023-02-17T08:02:44;13.75;;;8.43;;
66886;SDS011;67239;51.680;5.976;2023-02-17T08:05:11;14.80;;;8.15;;
66886;SDS011;67239;51.680;5.976;2023-02-17T08:07:38;14.57;;;8.25;;
66886;SDS011;67239;51.680;5.976;2023-02-17T08:10:05;12.15;;;7.95;;
66886;SDS011;67239;51.680;5.976;2023-02-17T08:12:52;14.75;;;8.45;;
66886;SDS011;67239;51.680;5.976;2023-02-17T08:15:19;12.45;;;7.65;;
66886;SDS011;67239;51.680;5.976;2023-02-17T08:17:46;11.90;;;7.70;;
66886;SDS011;67239;51.680;5.976;2023-02-17T08:20:16;13.52;;;7.38;;
66886;SDS011;67239;51.680;5.976;2023-02-17T08:22:44;11.20;;;7.30;;
66886;SDS011;67239;51.680;5.976;2023-02-17T08:25:11;11.15;;;7.05;;
66886;SDS011;67239;51.680;5.976;2023-02-17T08:27:37;11.85;;;7.10;;
66886;SDS011;67239;51.680;5.976;2023-02-17T08:30:05;13.15;;;7.43;;
66886;SDS011;67239;51.680;5.976;2023-02-17T08:32:33;10.93;;;7.85;;
66886;SDS011;67239;51.680;5.976;2023-02-17T08:35:00;12.20;;;7.28;;
66886;SDS011;67239;51.680;5.976;2023-02-17T08:37:27;12.40;;;6.78;;
66886;SDS011;67239;51.680;5.976;2023-02-17T08:39:55;11.18;;;7.47;;
66886;SDS011;67239;51.680;5.976;2023-02-17T08:42:25;10.40;;;6.65;;
66886;SDS011;67239;51.680;5.976;2023-02-17T08:44:53;11.77;;;6.82;;
66886;SDS011;67239;51.680;5.976;2023-02-17T08:47:20;9.15;;;6.82;;
66886;SDS011;67239;51.680;5.976;2023-02-17T08:49:47;12.00;;;6.50;;
66886;SDS011;67239;51.680;5.976;2023-02-17T08:52:14;8.52;;;5.72;;
66886;SDS011;67239;51.680;5.976;2023-02-17T08:54:41;9.40;;;6.72;;
66886;SDS011;67239;51.680;5.976;2023-02-17T08:57:08;8.00;;;6.07;;
66886;SDS011;67239;51.680;5.976;2023-02-17T08:59:35;8.60;;;6.45;;
66886;SDS011;67239;51.680;5.976;2023-02-17T09:02:03;8.75;;;6.30;;
66886;SDS011;67239;51.680;5.976;2023-02-17T09:04:30;8.32;;;5.90;;
66886;SDS011;67239;51.680;5.976;2023-02-17T09:06:57;9.68;;;6.32;;
66886;SDS011;67239;51.680;5.976;2023-02-17T09:09:24;10.55;;;6.75;;
66886;SDS011;67239;51.680;5.976;2023-02-17T09:11:53;7.90;;;5.50;;
66886;SDS011;67239;51.680;5.976;2023-02-17T09:14:23;9.32;;;6.55;;
66886;SDS011;67239;51.680;5.976;2023-02-17T09:16:50;8.73;;;6.13;;
66886;SDS011;67239;51.680;5.976;2023-02-17T09:19:19;8.45;;;6.05;;
66886;SDS011;67239;51.680;5.976;2023-02-17T09:21:47;6.97;;;5.70;;
66886;SDS011;67239;51.680;5.976;2023-02-17T09:24:15;8.20;;;6.28;;
66886;SDS011;67239;51.680;5.976;2023-02-17T09:26:43;7.57;;;5.85;;
66886;SDS011;67239;51.680;5.976;2023-02-17T09:29:11;7.75;;;5.97;;
66886;SDS011;67239;51.680;5.976;2023-02-17T09:31:38;7.30;;;5.57;;
66886;SDS011;67239;51.680;5.976;2023-02-17T09:34:06;7.60;;;6.25;;
66886;SDS011;67239;51.680;5.976;2023-02-17T09:36:36;10.05;;;6.00;;
66886;SDS011;67239;51.680;5.976;2023-02-17T09:39:06;7.35;;;6.20;;
66886;SDS011;67239;51.680;5.976;2023-02-17T09:41:42;8.23;;;6.55;;
66886;SDS011;67239;51.680;5.976;2023-02-17T09:44:18;7.55;;;6.38;;
66886;SDS011;67239;51.680;5.976;2023-02-17T09:46:54;8.90;;;6.35;;
66886;SDS011;67239;51.680;5.976;2023-02-17T09:49:44;10.40;;;6.68;;
66886;SDS011;67239;51.680;5.976;2023-02-17T09:55:05;7.93;;;6.32;;
66886;SDS011;67239;51.680;5.976;2023-02-17T09:57:44;8.95;;;6.78;;
66886;SDS011;67239;51.680;5.976;2023-02-17T10:00:41;9.52;;;7.07;;
66886;SDS011;67239;51.680;5.976;2023-02-17T10:03:15;9.57;;;7.03;;
66886;SDS011;67239;51.680;5.976;2023-02-17T10:05:45;8.35;;;7.20;;
66886;SDS011;67239;51.680;5.976;2023-02-17T10:08:29;8.55;;;7.30;;
66886;SDS011;67239;51.680;5.976;2023-02-17T10:11:12;9.15;;;7.38;;
66886;SDS011;67239;51.680;5.976;2023-02-17T10:13:51;9.88;;;6.80;;
66886;SDS011;67239;51.680;5.976;2023-02-17T10:16:27;8.55;;;7.55;;
66886;SDS011;67239;51.680;5.976;2023-02-17T10:19:10;8.43;;;7.50;;
66886;SDS011;67239;51.680;5.976;2023-02-17T10:22:10;9.13;;;6.95;;
66886;SDS011;67239;51.680;5.976;2023-02-17T10:24:44;8.32;;;7.20;;
66886;SDS011;67239;51.680;5.976;2023-02-17T10:35:51;9.50;;;7.60;;
66886;SDS011;67239;51.680;5.976;2023-02-17T10:41:10;7.22;;;6.53;;
66886;SDS011;67239;51.680;5.976;2023-02-17T10:43:43;8.10;;;7.30;;
66886;SDS011;67239;51.680;5.976;2023-02-17T10:46:12;8.57;;;7.78;;
66886;SDS011;67239;51.680;5.976;2023-02-17T10:48:46;8.55;;;7.65;;
66886;SDS011;67239;51.680;5.976;2023-02-17T10:51:21;9.52;;;7.63;;
66886;SDS011;67239;51.680;5.976;2023-02-17T10:53:55;8.15;;;7.30;;
66886;SDS011;67239;51.680;5.976;2023-02-17T10:56:34;11.32;;;7.78;;
66886;SDS011;67239;51.680;5.976;2023-02-17T11:01:48;8.43;;;7.63;;
66886;SDS011;67239;51.680;5.976;2023-02-17T11:04:16;8.02;;;7.18;;
66886;SDS011;67239;51.680;5.976;2023-02-17T11:06:46;8.38;;;7.50;;
66886;SDS011;67239;51.680;5.976;2023-02-17T11:09:26;8.60;;;7.07;;
66886;SDS011;67239;51.680;5.976;2023-02-17T11:11:59;8.35;;;6.63;;
66886;SDS011;67239;51.680;5.976;2023-02-17T11:14:44;10.02;;;7.90;;
66886;SDS011;67239;51.680;5.976;2023-02-17T11:17:37;8.63;;;7.82;;
66886;SDS011;67239;51.680;5.976;2023-02-17T11:22:43;9.40;;;8.40;;
66886;SDS011;67239;51.680;5.976;2023-02-17T11:25:25;9.32;;;8.43;;
66886;SDS011;67239;51.680;5.976;2023-02-17T11:28:09;10.40;;;9.15;;
66886;SDS011;67239;51.680;5.976;2023-02-17T11:30:47;12.07;;;9.02;;
66886;SDS011;67239;51.680;5.976;2023-02-17T11:33:22;11.50;;;8.73;;
66886;SDS011;67239;51.680;5.976;2023-02-17T11:35:56;10.63;;;8.82;;
66886;SDS011;67239;51.680;5.976;2023-02-17T11:38:28;10.30;;;8.73;;
66886;SDS011;67239;51.680;5.976;2023-02-17T11:41:10;10.50;;;8.73;;
66886;SDS011;67239;51.680;5.976;2023-02-17T11:43:38;10.45;;;8.40;;
66886;SDS011;67239;51.680;5.976;2023-02-17T11:46:20;12.60;;;8.68;;
66886;SDS011;67239;51.680;5.976;2023-02-17T11:52:02;13.25;;;10.10;;
66886;SDS011;67239;51.680;5.976;2023-02-17T11:57:44;10.88;;;9.73;;
66886;SDS011;67239;51.680;5.976;2023-02-17T12:03:47;10.07;;;8.77;;
66886;SDS011;67239;51.680;5.976;2023-02-17T12:07:06;8.27;;;7.38;;
66886;SDS011;67239;51.680;5.976;2023-02-17T12:10:11;10.00;;;8.18;;
66886;SDS011;67239;51.680;5.976;2023-02-17T12:12:59;8.95;;;8.05;;
66886;SDS011;67239;51.680;5.976;2023-02-17T12:18:29;11.18;;;8.80;;
66886;SDS011;67239;51.680;5.976;2023-02-17T12:21:10;9.02;;;8.00;;
66886;SDS011;67239;51.680;5.976;2023-02-17T12:26:54;13.25;;;9.55;;
66886;SDS011;67239;51.680;5.976;2023-02-17T12:29:57;13.25;;;9.80;;
66886;SDS011;67239;51.680;5.976;2023-02-17T12:36:09;11.77;;;10.57;;
66886;SDS011;67239;51.680;5.976;2023-02-17T12:38:40;12.50;;;11.20;;
66886;SDS011;67239;51.680;5.976;2023-02-17T12:44:12;13.15;;;10.45;;
66886;SDS011;67239;51.680;5.976;2023-02-17T12:46:48;11.82;;;10.73;;
66886;SDS011;67239;51.680;5.976;2023-02-17T12:49:26;14.43;;;10.93;;
66886;SDS011;67239;51.680;5.976;2023-02-17T12:52:11;11.18;;;10.05;;
66886;SDS011;67239;51.680;5.976;2023-02-17T12:54:48;12.75;;;10.85;;
66886;SDS011;67239;51.680;5.976;2023-02-17T12:57:31;12.73;;;11.13;;
66886;SDS011;67239;51.680;5.976;2023-02-17T13:00:27;13.75;;;12.23;;
66886;SDS011;67239;51.680;5.976;2023-02-17T13:03:00;12.55;;;11.18;;
66886;SDS011;67239;51.680;5.976;2023-02-17T13:05:31;12.55;;;11.23;;
66886;SDS011;67239;51.680;5.976;2023-02-17T13:08:21;11.55;;;10.30;;
66886;SDS011;67239;51.680;5.976;2023-02-17T13:11:03;11.57;;;10.38;;
66886;SDS011;67239;51.680;5.976;2023-02-17T13:13:36;11.95;;;10.73;;
66886;SDS011;67239;51.680;5.976;2023-02-17T13:16:11;10.85;;;9.80;;
66886;SDS011;67239;51.680;5.976;2023-02-17T13:18:41;11.07;;;9.70;;
66886;SDS011;67239;51.680;5.976;2023-02-17T13:24:05;7.70;;;5.80;;
66886;SDS011;67239;51.680;5.976;2023-02-17T13:26:41;7.95;;;4.97;;
66886;SDS011;67239;51.680;5.976;2023-02-17T13:31:48;6.55;;;4.70;;
66886;SDS011;67239;51.680;5.976;2023-02-17T13:34:32;5.93;;;3.97;;
66886;SDS011;67239;51.680;5.976;2023-02-17T13:37:23;5.45;;;4.20;;
66886;SDS011;67239;51.680;5.976;2023-02-17T13:40:00;5.63;;;4.57;;
66886;SDS011;67239;51.680;5.976;2023-02-17T13:42:50;5.03;;;4.18;;
66886;SDS011;67239;51.680;5.976;2023-02-17T13:45:28;5.43;;;3.83;;
66886;SDS011;67239;51.680;5.976;2023-02-17T13:50:51;4.63;;;3.55;;
66886;SDS011;67239;51.680;5.976;2023-02-17T13:53:40;6.32;;;3.40;;
66886;SDS011;67239;51.680;5.976;2023-02-17T13:56:21;4.35;;;3.42;;
66886;SDS011;67239;51.680;5.976;2023-02-17T13:58:52;4.75;;;2.90;;
66886;SDS011;67239;51.680;5.976;2023-02-17T14:01:22;5.38;;;2.92;;
66886;SDS011;67239;51.680;5.976;2023-02-17T14:03:55;5.13;;;2.70;;
66886;SDS011;67239;51.680;5.976;2023-02-17T14:06:29;4.15;;;2.50;;
66886;SDS011;67239;51.680;5.976;2023-02-17T14:09:19;4.55;;;2.65;;
66886;SDS011;67239;51.680;5.976;2023-02-17T14:11:53;6.70;;;2.92;;
66886;SDS011;67239;51.680;5.976;2023-02-17T14:14:22;5.47;;;3.00;;
66886;SDS011;67239;51.680;5.976;2023-02-17T14:16:58;5.90;;;3.20;;
66886;SDS011;67239;51.680;5.976;2023-02-17T14:19:31;6.93;;;3.72;;
66886;SDS011;67239;51.680;5.976;2023-02-17T14:22:25;5.60;;;3.28;;
66886;SDS011;67239;51.680;5.976;2023-02-17T14:27:45;4.00;;;3.00;;
66886;SDS011;67239;51.680;5.976;2023-02-17T14:30:29;7.70;;;3.05;;
66886;SDS011;67239;51.680;5.976;2023-02-17T14:35:49;6.68;;;2.70;;
66886;SDS011;67239;51.680;5.976;2023-02-17T14:38:23;4.22;;;2.78;;
66886;SDS011;67239;51.680;5.976;2023-02-17T14:40:53;7.25;;;2.45;;
66886;SDS011;67239;51.680;5.976;2023-02-17T14:43:21;5.85;;;2.80;;
66886;SDS011;67239;51.680;5.976;2023-02-17T14:45:49;5.22;;;2.47;;
66886;SDS011;67239;51.680;5.976;2023-02-17T14:48:17;4.88;;;2.50;;
66886;SDS011;67239;51.680;5.976;2023-02-17T14:50:45;7.00;;;3.08;;
66886;SDS011;67239;51.680;5.976;2023-02-17T14:53:20;3.20;;;2.30;;
66886;SDS011;67239;51.680;5.976;2023-02-17T14:56:00;3.13;;;2.10;;
66886;SDS011;67239;51.680;5.976;2023-02-17T14:58:35;8.30;;;3.83;;
66886;SDS011;67239;51.680;5.976;2023-02-17T15:01:02;4.18;;;2.42;;
66886;SDS011;67239;51.680;5.976;2023-02-17T15:03:31;5.40;;;2.90;;
66886;SDS011;67239;51.680;5.976;2023-02-17T15:06:01;9.40;;;5.72;;
66886;SDS011;67239;51.680;5.976;2023-02-17T15:08:31;7.07;;;4.13;;
66886;SDS011;67239;51.680;5.976;2023-02-17T15:11:01;4.57;;;3.10;;
66886;SDS011;67239;51.680;5.976;2023-02-17T15:13:29;4.32;;;3.03;;
66886;SDS011;67239;51.680;5.976;2023-02-17T15:15:57;4.97;;;2.72;;
66886;SDS011;67239;51.680;5.976;2023-02-17T15:18:25;7.95;;;2.78;;
66886;SDS011;67239;51.680;5.976;2023-02-17T15:20:53;5.57;;;2.30;;
66886;SDS011;67239;51.680;5.976;2023-02-17T15:23:21;7.45;;;2.53;;
66886;SDS011;67239;51.680;5.976;2023-02-17T15:25:51;2.95;;;2.17;;
66886;SDS011;67239;51.680;5.976;2023-02-17T15:28:21;2.58;;;2.20;;
66886;SDS011;67239;51.680;5.976;2023-02-17T15:30:49;6.72;;;4.63;;
66886;SDS011;67239;51.680;5.976;2023-02-17T15:33:20;5.30;;;2.78;;
66886;SDS011;67239;51.680;5.976;2023-02-17T15:35:50;6.50;;;3.38;;
66886;SDS011;67239;51.680;5.976;2023-02-17T15:38:19;3.08;;;2.63;;
66886;SDS011;67239;51.680;5.976;2023-02-17T15:40:48;3.42;;;2.45;;
66886;SDS011;67239;51.680;5.976;2023-02-17T15:43:19;8.68;;;2.65;;
66886;SDS011;67239;51.680;5.976;2023-02-17T15:45:48;5.25;;;2.90;;
66886;SDS011;67239;51.680;5.976;2023-02-17T15:48:25;4.78;;;2.10;;
66886;SDS011;67239;51.680;5.976;2023-02-17T15:50:55;3.55;;;2.35;;
66886;SDS011;67239;51.680;5.976;2023-02-17T15:53:22;3.90;;;2.40;;
66886;SDS011;67239;51.680;5.976;2023-02-17T15:55:50;3.88;;;2.15;;
66886;SDS011;67239;51.680;5.976;2023-02-17T15:58:19;3.95;;;2.58;;
66886;SDS011;67239;51.680;5.976;2023-02-17T16:00:48;4.72;;;2.47;;
66886;SDS011;67239;51.680;5.976;2023-02-17T16:03:16;4.28;;;2.70;;
66886;SDS011;67239;51.680;5.976;2023-02-17T16:05:44;4.32;;;2.22;;
66886;SDS011;67239;51.680;5.976;2023-02-17T16:08:11;6.78;;;2.67;;
66886;SDS011;67239;51.680;5.976;2023-02-17T16:10:38;4.68;;;2.50;;
66886;SDS011;67239;51.680;5.976;2023-02-17T16:13:08;12.43;;;6.60;;
66886;SDS011;67239;51.680;5.976;2023-02-17T16:15:41;4.35;;;2.63;;
66886;SDS011;67239;51.680;5.976;2023-02-17T16:18:29;3.85;;;2.60;;
66886;SDS011;67239;51.680;5.976;2023-02-17T16:20:57;4.25;;;3.05;;
66886;SDS011;67239;51.680;5.976;2023-02-17T16:23:23;7.25;;;3.13;;